Time;durP1;ratioP1;P1;durP2;ratioP2;P2;SDS_P1;SDS_P2;PMS_P1;PMS_P2;Temp;Humidity;BMP_temperature;BMP_pressure;BME280_temperature;BME280_humidity;BME280_pressure;Samples;Min_cycle;Max_cycle;Signal;HPM_P1;HPM_P2
2023/01/03 00:00:37;;;;;;;30.87;29.00;;;;;;;5.26;100.00;101992.88;5013526;28;20807;-45
2023/01/03 00:03:05;;;;;;;31.73;28.97;;;;;;;5.21;100.00;101987.16;5014004;28;20803;-46
2023/01/03 00:05:34;;;;;;;30.07;28.10;;;;;;;5.17;100.00;101991.06;5013682;28;20440;-45
2023/01/03 00:08:03;;;;;;;31.20;28.73;;;;;;;5.09;100.00;102001.41;5013646;28;21052;-46
2023/01/03 00:10:31;;;;;;;30.50;28.90;;;;;;;5.06;100.00;101994.59;5013353;28;20538;-45
2023/01/03 00:12:58;;;;;;;32.00;29.10;;;;;;;5.00;100.00;101993.31;5013661;28;20787;-50
2023/01/03 00:15:26;;;;;;;31.70;29.57;;;;;;;4.94;100.00;102001.75;5013702;28;20445;-44
2023/01/03 00:17:55;;;;;;;31.53;29.13;;;;;;;4.88;100.00;102004.91;5013729;28;20460;-44
2023/01/03 00:20:23;;;;;;;31.63;29.23;;;;;;;4.86;100.00;102011.31;5013229;28;20465;-44
2023/01/03 00:22:50;;;;;;;29.67;28.07;;;;;;;4.84;100.00;102011.41;5013571;28;20787;-45
2023/01/03 00:25:19;;;;;;;30.00;28.30;;;;;;;4.84;100.00;102029.06;5013392;28;20845;-45
2023/01/03 00:27:47;;;;;;;31.17;29.17;;;;;;;4.86;100.00;102029.81;5013149;28;20441;-43
2023/01/03 00:30:15;;;;;;;30.13;27.80;;;;;;;4.89;100.00;102040.97;5012901;28;20487;-45
2023/01/03 00:32:42;;;;;;;30.50;28.40;;;;;;;4.92;100.00;102037.22;5013434;28;20436;-48
2023/01/03 00:35:10;;;;;;;30.40;28.10;;;;;;;4.97;100.00;102045.59;5012339;28;20434;-45
2023/01/03 00:37:37;;;;;;;31.73;29.57;;;;;;;4.99;100.00;102041.00;5010386;28;20440;-48
2023/01/03 00:40:06;;;;;;;29.60;27.70;;;;;;;5.00;100.00;102042.69;5004341;28;20465;-46
2023/01/03 00:43:27;;;;;;;28.70;27.00;;;;;;;5.01;100.00;102036.44;5013435;28;20425;-45
2023/01/03 00:45:22;;;;;;;29.17;27.53;;;;;;;5.02;100.00;102041.59;5012879;28;20523;-45
2023/01/03 00:47:53;;;;;;;28.83;27.50;;;;;;;5.02;100.00;102033.66;5013131;28;20449;-46
2023/01/03 00:50:20;;;;;;;28.60;26.90;;;;;;;5.04;100.00;102049.41;5012718;28;20461;-46
2023/01/03 00:52:48;;;;;;;30.03;28.23;;;;;;;5.01;100.00;102045.22;5013205;28;20468;-45
2023/01/03 00:55:15;;;;;;;29.43;27.43;;;;;;;4.97;100.00;102046.44;5013000;28;20436;-46
2023/01/03 00:57:45;;;;;;;30.23;28.07;;;;;;;4.92;100.00;102051.28;5013077;28;20428;-46
2023/01/03 01:00:13;;;;;;;28.90;27.40;;;;;;;4.89;100.00;102056.81;5012466;28;20511;-47
2023/01/03 01:02:41;;;;;;;29.17;27.43;;;;;;;4.85;100.00;102065.97;5012976;28;20432;-47
2023/01/03 01:05:09;;;;;;;31.27;28.93;;;;;;;4.83;100.00;102070.56;5012562;28;20443;-46
2023/01/03 01:07:36;;;;;;;30.10;28.20;;;;;;;4.81;100.00;102079.53;5013019;28;20435;-49
2023/01/03 01:10:05;;;;;;;29.50;27.83;;;;;;;4.78;100.00;102075.34;5012195;28;20473;-45
2023/01/03 01:12:32;;;;;;;30.50;28.23;;;;;;;4.77;100.00;102083.44;5012772;28;20939;-45
2023/01/03 01:15:02;;;;;;;30.43;28.53;;;;;;;4.73;100.00;102088.13;5012495;28;20472;-49
2023/01/03 01:17:31;;;;;;;30.80;28.53;;;;;;;4.68;100.00;102087.66;5012577;28;20524;-48
2023/01/03 01:19:58;;;;;;;29.93;27.60;;;;;;;4.68;100.00;102100.03;5012138;28;20472;-44
2023/01/03 01:22:26;;;;;;;31.33;28.87;;;;;;;4.66;100.00;102107.25;5012653;28;20437;-45
2023/01/03 01:24:54;;;;;;;33.27;30.00;;;;;;;4.64;100.00;102110.00;5012494;28;20796;-45
2023/01/03 01:27:21;;;;;;;31.27;28.80;;;;;;;4.62;100.00;102106.66;5012017;28;20436;-44
2023/01/03 01:29:49;;;;;;;30.37;28.37;;;;;;;4.64;100.00;102120.56;5011082;28;21208;-47
2023/01/03 01:32:18;;;;;;;30.00;28.10;;;;;;;4.63;100.00;102120.72;5012192;28;20429;-47
2023/01/03 01:34:46;;;;;;;29.17;27.50;;;;;;;4.62;100.00;102122.50;5012275;28;20487;-45
2023/01/03 01:37:13;;;;;;;30.90;28.93;;;;;;;4.57;100.00;102123.84;5009290;28;20429;-45
2023/01/03 01:39:41;;;;;;;32.17;29.00;;;;;;;4.51;100.00;102127.00;5003653;28;20461;-46
2023/01/03 01:44:59;;;;;;;29.70;28.00;;;;;;;4.37;100.00;102133.38;5012261;28;20433;-50
2023/01/03 01:47:33;;;;;;;29.67;27.63;;;;;;;4.32;100.00;102132.91;5012050;28;20821;-47
2023/01/03 01:50:11;;;;;;;29.53;27.67;;;;;;;4.24;100.00;102138.78;5011626;28;20473;-45
2023/01/03 01:52:42;;;;;;;29.37;27.10;;;;;;;4.18;100.00;102133.97;5012183;28;20433;-45
2023/01/03 01:55:17;;;;;;;29.13;27.17;;;;;;;4.12;100.00;102134.47;5011727;28;20433;-48
2023/01/03 01:57:46;;;;;;;30.10;28.00;;;;;;;4.10;100.00;102149.59;5012206;28;20444;-45
2023/01/03 02:00:14;;;;;;;29.50;27.87;;;;;;;4.06;100.00;102144.69;5011570;28;20507;-46
2023/01/03 02:02:44;;;;;;;30.33;28.13;;;;;;;4.03;100.00;102147.56;5012114;28;20805;-46
2023/01/03 02:05:14;;;;;;;30.40;28.67;;;;;;;4.00;100.00;102147.81;5011821;28;20793;-46
2023/01/03 02:07:43;;;;;;;31.43;29.30;;;;;;;3.99;100.00;102141.69;5011706;28;20965;-46
2023/01/03 02:10:10;;;;;;;30.20;28.60;;;;;;;4.01;100.00;102152.09;5011544;28;20495;-47
2023/01/03 02:15:40;;;;;;;29.13;27.60;;;;;;;4.02;100.00;102159.06;5011689;28;20433;-46
2023/01/03 02:18:33;;;;;;;31.23;29.50;;;;;;;4.01;100.00;102158.22;5011612;28;20453;-46
2023/01/03 02:21:35;;;;;;;31.00;29.03;;;;;;;3.99;100.00;102157.53;5011763;28;20894;-45
2023/01/03 02:24:32;;;;;;;31.70;29.70;;;;;;;3.97;100.00;102163.88;4988947;28;20448;-50
2023/01/03 02:27:11;;;;;;;30.60;28.90;;;;;;;3.91;100.00;102171.28;5009103;28;20452;-46
2023/01/03 02:30:18;;;;;;;31.30;29.40;;;;;;;3.91;100.00;102178.41;5011066;28;21006;-49
2023/01/03 02:32:53;;;;;;;30.77;28.97;;;;;;;3.89;100.00;102173.22;5011701;28;20428;-46
2023/01/03 02:35:30;;;;;;;31.03;29.10;;;;;;;3.87;100.00;102177.78;5011711;28;20491;-45
2023/01/03 02:38:04;;;;;;;30.40;28.20;;;;;;;3.86;100.00;102173.47;5007136;28;20444;-48
2023/01/03 02:40:37;;;;;;;31.13;29.13;;;;;;;3.86;100.00;102169.97;5006015;28;20461;-47
2023/01/03 02:43:12;;;;;;;30.03;28.13;;;;;;;3.85;100.00;102177.06;5011585;28;20422;-46
2023/01/03 02:45:59;;;;;;;29.93;28.43;;;;;;;3.82;100.00;102179.13;5011419;28;20433;-45
2023/01/03 02:48:37;;;;;;;29.73;28.33;;;;;;;3.80;100.00;102183.66;5011015;28;20905;-46
2023/01/03 02:51:12;;;;;;;30.97;29.00;;;;;;;3.76;100.00;102180.41;5011498;28;20499;-45
2023/01/03 02:53:43;;;;;;;30.40;28.70;;;;;;;3.74;100.00;102184.97;5011266;28;20431;-44
2023/01/03 02:56:15;;;;;;;30.00;28.03;;;;;;;3.71;100.00;102187.84;5011455;28;20421;-45
2023/01/03 02:58:46;;;;;;;31.30;29.23;;;;;;;3.70;100.00;102191.41;5012401;28;20457;-49
2023/01/03 03:01:18;;;;;;;30.17;28.53;;;;;;;3.67;100.00;102185.56;5015215;28;20792;-47
2023/01/03 03:03:47;;;;;;;30.30;28.03;;;;;;;3.67;100.00;102191.69;5014933;28;20475;-49
2023/01/03 03:06:21;;;;;;;30.90;29.20;;;;;;;3.64;100.00;102191.06;5015073;28;20436;-48
2023/01/03 03:08:49;;;;;;;30.50;28.40;;;;;;;3.64;100.00;102196.34;5014678;28;20526;-47
2023/01/03 03:14:08;;;;;;;29.73;28.00;;;;;;;3.62;100.00;102198.25;5014791;28;20520;-46
2023/01/03 03:16:47;;;;;;;30.80;28.80;;;;;;;3.61;100.00;102204.50;5014932;28;20428;-45
2023/01/03 03:25:21;;;;;;;29.30;27.77;;;;;;;3.56;100.00;102203.97;5014393;28;20443;-47
2023/01/03 03:30:40;;;;;;;30.10;28.20;;;;;;;3.53;100.00;102207.69;5014097;28;20480;-46
2023/01/03 03:33:13;;;;;;;30.23;28.50;;;;;;;3.52;100.00;102205.19;5014461;28;20433;-46
2023/01/03 03:35:47;;;;;;;30.63;28.40;;;;;;;3.50;100.00;102221.09;5014480;28;20871;-46
2023/01/03 03:38:20;;;;;;;28.50;27.03;;;;;;;3.49;100.00;102221.25;5007795;28;20805;-48
2023/01/03 03:46:49;;;;;;;30.43;28.20;;;;;;;3.45;100.00;102246.16;5014218;28;20441;-44
2023/01/03 03:49:40;;;;;;;30.47;28.40;;;;;;;3.44;100.00;102245.28;5013491;28;21033;-45
2023/01/03 03:52:13;;;;;;;31.57;28.27;;;;;;;3.44;100.00;102247.94;5014363;28;20425;-47
2023/01/03 03:54:44;;;;;;;28.50;26.90;;;;;;;3.47;100.00;102247.72;5013949;28;20429;-46
2023/01/03 03:57:17;;;;;;;29.30;27.23;;;;;;;3.48;100.00;102244.13;5014207;28;20923;-45
2023/01/03 03:59:51;;;;;;;29.20;27.60;;;;;;;3.51;100.00;102246.53;5013542;28;20469;-45
2023/01/03 04:02:21;;;;;;;29.70;27.90;;;;;;;3.54;100.00;102254.22;5013603;28;20424;-48
2023/01/03 04:04:55;;;;;;;30.73;28.93;;;;;;;3.58;100.00;102247.78;5013886;28;20444;-44
2023/01/03 04:07:23;;;;;;;29.67;27.67;;;;;;;3.63;100.00;102247.41;5013709;28;20436;-46
2023/01/03 04:09:51;;;;;;;30.93;28.53;;;;;;;3.66;100.00;102253.31;5013123;28;20475;-46
2023/01/03 04:12:19;;;;;;;29.97;27.73;;;;;;;3.71;100.00;102266.97;5013630;28;20429;-44
2023/01/03 04:14:46;;;;;;;44.03;29.57;;;;;;;3.78;100.00;102270.84;5013408;28;20439;-45
2023/01/03 04:17:14;;;;;;;29.33;27.50;;;;;;;3.85;100.00;102279.16;5013537;28;20425;-46
2023/01/03 04:19:42;;;;;;;29.10;27.60;;;;;;;3.90;100.00;102267.28;5013001;28;20480;-45
2023/01/03 04:22:11;;;;;;;31.20;28.90;;;;;;;3.97;100.00;102272.09;5013620;28;20433;-45
2023/01/03 04:24:38;;;;;;;30.30;28.00;;;;;;;3.99;100.00;102272.81;5013271;28;20432;-45
2023/01/03 04:27:06;;;;;;;30.43;28.73;;;;;;;3.98;100.00;102263.19;5013331;28;20433;-45
2023/01/03 04:29:33;;;;;;;28.50;26.83;;;;;;;3.96;100.00;102278.31;5012819;28;20471;-44
2023/01/03 04:32:06;;;;;;;29.80;27.97;;;;;;;3.90;100.00;102279.63;5013373;28;20959;-48
2023/01/03 04:34:34;;;;;;;29.27;27.50;;;;;;;3.85;100.00;102277.31;5013263;28;20440;-47
2023/01/03 04:37:02;;;;;;;30.00;28.03;;;;;;;3.82;100.00;102277.56;5007913;28;20470;-49
2023/01/03 04:39:31;;;;;;;30.60;28.77;;;;;;;3.78;100.00;102278.75;5004462;28;20854;-44
2023/01/03 04:42:00;;;;;;;29.80;27.77;;;;;;;3.72;100.00;102281.88;5013170;28;20491;-45
2023/01/03 04:44:27;;;;;;;29.43;27.70;;;;;;;3.70;100.00;102275.03;5013135;28;20440;-46
2023/01/03 04:46:54;;;;;;;28.63;26.77;;;;;;;3.66;100.00;102284.13;5013114;28;20935;-47
2023/01/03 04:49:22;;;;;;;30.10;27.93;;;;;;;3.61;100.00;102283.63;5012409;28;20544;-46
2023/01/03 04:51:50;;;;;;;29.63;27.40;;;;;;;3.59;100.00;102280.25;5012849;28;20464;-49
2023/01/03 04:54:17;;;;;;;30.90;28.90;;;;;;;3.55;100.00;102279.66;5012584;28;20460;-45
2023/01/03 04:56:46;;;;;;;32.40;30.20;;;;;;;3.52;100.00;102282.50;5012988;28;20437;-47
2023/01/03 04:59:14;;;;;;;32.13;29.67;;;;;;;3.48;100.00;102277.56;5012636;28;20465;-46
2023/01/03 05:01:50;;;;;;;30.00;28.00;;;;;;;3.48;100.00;102280.19;5012980;28;20429;-45
2023/01/03 05:04:18;;;;;;;29.83;27.57;;;;;;;3.45;100.00;102286.56;5012643;28;20992;-50
2023/01/03 05:06:46;;;;;;;30.00;28.13;;;;;;;3.47;100.00;102294.34;5012758;28;20471;-45
2023/01/03 05:09:14;;;;;;;29.63;27.53;;;;;;;3.47;100.00;102284.63;5012446;28;20997;-47
2023/01/03 05:11:41;;;;;;;30.50;28.07;;;;;;;3.48;100.00;102288.97;5012855;28;20843;-45
2023/01/03 05:14:10;;;;;;;32.30;29.00;;;;;;;3.51;100.00;102293.16;5012591;28;20436;-46
2023/01/03 05:16:41;;;;;;;30.50;28.07;;;;;;;3.53;100.00;102294.72;5012666;28;20436;-46
2023/01/03 05:19:09;;;;;;;31.47;28.60;;;;;;;3.54;100.00;102290.31;5011873;28;20517;-48
2023/01/03 05:27:07;;;;;;;31.30;29.17;;;;;;;3.52;100.00;102287.78;5012485;28;20437;-44
2023/01/03 05:29:36;;;;;;;31.03;28.60;;;;;;;3.48;100.00;102291.59;5011797;28;20465;-46
2023/01/03 05:32:05;;;;;;;31.07;28.73;;;;;;;3.47;100.00;102295.19;5012151;28;20473;-45
2023/01/03 05:34:32;;;;;;;32.50;29.80;;;;;;;3.45;100.00;102291.81;5012199;28;20772;-45
2023/01/03 05:37:00;;;;;;;30.53;28.63;;;;;;;3.43;100.00;102290.25;5009627;28;20470;-45
2023/01/03 05:39:28;;;;;;;30.57;28.87;;;;;;;3.41;100.00;102292.16;5003526;28;21053;-45
2023/01/03 05:42:01;;;;;;;30.90;28.90;;;;;;;3.36;100.00;102295.13;5012280;28;21092;-45
2023/01/03 05:44:31;;;;;;;31.27;28.93;;;;;;;3.33;100.00;102293.56;5011933;28;20997;-48
2023/01/03 05:47:01;;;;;;;30.63;28.73;;;;;;;3.28;100.00;102295.72;5012381;28;20440;-47
2023/01/03 05:49:29;;;;;;;32.07;29.77;;;;;;;3.26;100.00;102291.47;5011628;28;20457;-45
2023/01/03 05:51:57;;;;;;;30.37;28.30;;;;;;;3.20;100.00;102292.75;5012097;28;20926;-45
2023/01/03 05:54:24;;;;;;;30.93;28.80;;;;;;;3.16;100.00;102291.31;5011928;28;20432;-44
2023/01/03 05:56:52;;;;;;;29.43;27.73;;;;;;;3.09;100.00;102299.78;5011837;28;20436;-46
2023/01/03 05:59:21;;;;;;;30.10;28.60;;;;;;;3.07;100.00;102301.69;5011432;28;20469;-48
2023/01/03 06:01:49;;;;;;;32.00;29.70;;;;;;;3.06;100.00;102305.25;5012050;28;20433;-47
2023/01/03 06:04:18;;;;;;;31.00;29.13;;;;;;;3.02;100.00;102307.28;5011735;28;20436;-45
2023/01/03 06:06:46;;;;;;;30.00;28.10;;;;;;;3.02;100.00;102312.53;5012049;28;20492;-44
2023/01/03 06:09:14;;;;;;;29.93;28.17;;;;;;;2.98;100.00;102308.47;5011147;28;20477;-47
2023/01/03 06:11:41;;;;;;;28.73;27.33;;;;;;;2.96;100.00;102299.81;5012002;28;20476;-44
2023/01/03 06:14:09;;;;;;;29.30;27.43;;;;;;;2.95;100.00;102318.38;5011785;28;20432;-45
2023/01/03 06:19:23;;;;;;;29.57;27.70;;;;;;;2.90;100.00;102325.78;5011451;28;20887;-44
2023/01/03 06:21:51;;;;;;;29.13;27.53;;;;;;;2.87;100.00;102328.63;5011532;28;20425;-45
2023/01/03 06:24:19;;;;;;;31.03;28.70;;;;;;;2.84;100.00;102334.91;5011576;28;20488;-46
2023/01/03 06:26:47;;;;;;;28.97;27.37;;;;;;;2.82;100.00;102335.97;5011709;28;20437;-47
2023/01/03 06:29:14;;;;;;;30.17;27.97;;;;;;;2.77;100.00;102337.16;5011225;28;20495;-46
2023/01/03 06:31:42;;;;;;;32.30;29.57;;;;;;;2.76;100.00;102340.75;5011761;28;20523;-44
2023/01/03 06:34:10;;;;;;;30.87;28.93;;;;;;;2.75;100.00;102346.94;5013519;28;20459;-44
2023/01/03 06:36:39;;;;;;;30.40;28.80;;;;;;;2.72;100.00;102351.59;5013923;28;20433;-45
2023/01/03 06:39:07;;;;;;;30.93;29.27;;;;;;;2.68;100.00;102353.63;5006388;28;20473;-45
2023/01/03 06:41:35;;;;;;;30.03;28.43;;;;;;;2.65;100.00;102352.97;5015606;28;20452;-48
2023/01/03 06:44:02;;;;;;;29.73;28.13;;;;;;;2.61;100.00;102360.25;5015360;28;20441;-45
2023/01/03 06:54:55;;;;;;;29.73;27.80;;;;;;;2.56;100.00;102374.69;5015259;28;20436;-48
2023/01/03 06:57:23;;;;;;;31.90;29.70;;;;;;;2.55;100.00;102378.25;5015348;28;20506;-49
2023/01/03 06:59:53;;;;;;;31.27;29.20;;;;;;;2.55;100.00;102381.72;5014682;28;20476;-45
2023/01/03 07:02:21;;;;;;;30.60;28.60;;;;;;;2.56;100.00;102391.34;5015211;28;20439;-48
2023/01/03 07:04:49;;;;;;;31.13;29.23;;;;;;;2.57;100.00;102390.34;5014924;28;20943;-45
2023/01/03 07:07:18;;;;;;;31.83;29.83;;;;;;;2.56;100.00;102393.97;5015279;28;20886;-46
2023/01/03 07:09:46;;;;;;;33.77;30.83;;;;;;;2.55;100.00;102394.91;5014487;28;21117;-44
2023/01/03 07:14:58;;;;;;;32.80;30.77;;;;;;;2.58;100.00;102409.66;5014939;28;20600;-45
2023/01/03 07:17:26;;;;;;;31.87;29.57;;;;;;;2.58;100.00;102409.66;5014966;28;20429;-51
2023/01/03 07:19:54;;;;;;;34.37;31.73;;;;;;;2.58;100.00;102404.38;5014498;28;20535;-46
2023/01/03 07:22:23;;;;;;;32.10;29.57;;;;;;;2.57;100.00;102407.97;5014848;28;20483;-46
2023/01/03 07:24:50;;;;;;;31.43;29.00;;;;;;;2.55;100.00;102421.25;5014927;28;20439;-50
2023/01/03 07:27:18;;;;;;;31.50;29.37;;;;;;;2.54;100.00;102416.91;5014894;28;20459;-45
2023/01/03 07:29:46;;;;;;;32.53;30.33;;;;;;;2.56;100.00;102425.56;5014212;28;20800;-44
2023/01/03 07:32:14;;;;;;;31.93;29.07;;;;;;;2.56;100.00;102414.19;5014639;28;20469;-45
2023/01/03 07:34:41;;;;;;;31.27;29.00;;;;;;;2.56;100.00;102425.56;5014332;28;20441;-45
2023/01/03 07:37:09;;;;;;;30.73;28.90;;;;;;;2.58;100.00;102421.03;5011999;28;20440;-45
2023/01/03 07:39:38;;;;;;;31.07;29.27;;;;;;;2.57;100.00;102421.97;5005812;28;20989;-45
2023/01/03 07:44:50;;;;;;;32.63;30.07;;;;;;;2.57;100.00;102426.41;5013953;28;20950;-44
2023/01/03 07:47:18;;;;;;;33.07;30.50;;;;;;;2.57;100.00;102435.13;5014326;28;20437;-46
2023/01/03 07:49:46;;;;;;;33.63;30.93;;;;;;;2.57;100.00;102437.75;5013571;28;20464;-44
2023/01/03 07:52:14;;;;;;;32.27;29.63;;;;;;;2.57;100.00;102442.22;5014144;28;20600;-47
2023/01/03 07:54:43;;;;;;;30.20;28.00;;;;;;;2.58;100.00;102446.50;5013909;28;20437;-47
2023/01/03 07:57:10;;;;;;;31.60;28.73;;;;;;;2.59;100.00;102450.84;5014228;28;20444;-45
2023/01/03 07:59:38;;;;;;;32.03;29.57;;;;;;;2.59;100.00;102450.84;5013606;28;20464;-50
2023/01/03 08:02:06;;;;;;;30.77;28.57;;;;;;;2.59;100.00;102459.59;5014292;28;20452;-45
2023/01/03 08:04:33;;;;;;;31.50;29.10;;;;;;;2.59;100.00;102456.13;5012792;28;20433;-45
2023/01/03 08:07:01;;;;;;;30.13;28.43;;;;;;;2.60;100.00;102449.88;5014203;28;20433;-47
2023/01/03 08:14:57;;;;;;;30.33;28.13;;;;;;;2.64;100.00;102470.66;5013677;28;20965;-45
2023/01/03 08:17:25;;;;;;;30.97;28.70;;;;;;;2.67;100.00;102478.34;4997574;28;20783;-45
2023/01/03 08:19:52;;;;;;;29.63;27.33;;;;;;;2.68;100.00;102472.16;4978125;28;20489;-45
2023/01/03 08:22:20;;;;;;;30.70;28.60;;;;;;;2.73;100.00;102482.34;4976858;28;20442;-45
2023/01/03 08:24:48;;;;;;;29.80;28.20;;;;;;;2.74;100.00;102473.53;4973536;28;20462;-49
2023/01/03 08:27:17;;;;;;;30.73;28.43;;;;;;;2.77;100.00;102484.69;4989879;28;20444;-45
2023/01/03 08:29:46;;;;;;;29.50;27.70;;;;;;;2.82;100.00;102483.53;4989614;28;20625;-45
2023/01/03 08:32:13;;;;;;;29.57;27.63;;;;;;;2.84;100.00;102486.91;4977974;28;20472;-46
2023/01/03 08:34:43;;;;;;;30.20;28.30;;;;;;;2.87;100.00;102489.34;4977792;28;20431;-44
2023/01/03 08:37:14;;;;;;;30.63;28.33;;;;;;;2.86;100.00;102482.38;4978437;28;20525;-48
2023/01/03 08:39:46;;;;;;;29.27;27.23;;;;;;;2.90;100.00;102484.69;4975194;28;20920;-50
2023/01/03 08:42:19;;;;;;;30.20;28.60;;;;;;;2.90;100.00;102499.69;4975687;28;20518;-45
2023/01/03 08:44:48;;;;;;;29.60;27.90;;;;;;;2.94;100.00;102501.13;4976183;28;20956;-44
2023/01/03 08:47:16;;;;;;;30.43;27.90;;;;;;;2.98;100.00;102500.00;5004577;28;20437;-47
2023/01/03 08:49:44;;;;;;;28.83;27.23;;;;;;;3.00;100.00;102498.94;5012283;28;20847;-47
2023/01/03 08:52:11;;;;;;;29.47;27.90;;;;;;;3.04;100.00;102503.06;5012898;28;20456;-47
2023/01/03 08:54:39;;;;;;;31.03;29.10;;;;;;;3.07;100.00;102515.16;5012592;28;20527;-45
2023/01/03 08:57:07;;;;;;;31.43;29.13;;;;;;;3.10;100.00;102512.31;5012264;28;20792;-44
2023/01/03 08:59:36;;;;;;;32.57;30.33;;;;;;;3.16;100.00;102512.75;4988791;28;20469;-45
2023/01/03 09:02:03;;;;;;;31.57;29.53;;;;;;;3.21;100.00;102520.34;5012418;28;20439;-47
2023/01/03 09:04:31;;;;;;;31.80;29.80;;;;;;;3.25;100.00;102522.66;5012672;28;20472;-46
2023/01/03 09:06:59;;;;;;;31.57;29.80;;;;;;;3.30;100.00;102524.97;5012729;28;20441;-49
2023/01/03 09:09:27;;;;;;;32.57;29.83;;;;;;;3.35;100.00;102523.69;5012308;28;20833;-45
2023/01/03 09:11:54;;;;;;;31.73;30.23;;;;;;;3.43;100.00;102522.34;5012771;28;20444;-48
2023/01/03 09:14:22;;;;;;;32.23;30.00;;;;;;;3.47;100.00;102529.91;5011663;28;20480;-45
2023/01/03 09:16:51;;;;;;;33.47;30.87;;;;;;;3.55;100.00;102530.25;5011985;28;20436;-48
2023/01/03 09:19:19;;;;;;;32.53;30.50;;;;;;;3.62;100.00;102531.47;5012149;28;20476;-46
2023/01/03 09:21:46;;;;;;;31.97;30.27;;;;;;;3.69;100.00;102532.75;5012628;28;20452;-45
2023/01/03 09:24:14;;;;;;;34.93;32.13;;;;;;;3.78;100.00;102536.50;5012308;28;20433;-46
2023/01/03 09:26:42;;;;;;;32.70;31.00;;;;;;;3.81;100.00;102542.41;5012387;28;20421;-45
2023/01/03 09:29:12;;;;;;;31.47;29.57;;;;;;;3.85;100.00;102543.06;5011601;28;20885;-45
2023/01/03 09:31:40;;;;;;;31.20;29.37;;;;;;;3.90;100.00;102543.56;5012266;28;20437;-47
2023/01/03 09:34:09;;;;;;;32.13;30.27;;;;;;;3.98;100.00;102548.28;5012168;28;20503;-45
2023/01/03 09:36:37;;;;;;;31.77;29.50;;;;;;;4.02;100.00;102547.09;5010832;28;20926;-46
2023/01/03 09:39:05;;;;;;;32.50;29.80;;;;;;;4.05;100.00;102545.09;5002634;28;20470;-47
2023/01/03 09:41:33;;;;;;;32.13;30.10;;;;;;;4.14;100.00;102555.00;5012206;28;20432;-45
2023/01/03 09:44:04;;;;;;;32.77;30.67;;;;;;;4.18;100.00;102542.41;5011347;28;20440;-44
2023/01/03 09:46:34;;;;;;;31.47;29.70;;;;;;;4.21;100.00;102548.28;5012498;28;20480;-45
2023/01/03 09:49:05;;;;;;;31.90;30.00;;;;;;;4.26;100.00;102547.97;5011638;28;21004;-45
2023/01/03 10:06:00;;;;;;;31.23;28.93;;;;;;;4.65;100.00;102558.25;5011916;28;20437;-47
2023/01/03 10:08:43;;;;;;;30.77;28.87;;;;;;;4.75;100.00;102561.06;5011381;28;20453;-45
2023/01/03 10:11:20;;;;;;;29.60;27.83;;;;;;;4.83;100.00;102563.97;5011820;28;21146;-45
2023/01/03 10:14:08;;;;;;;30.03;28.13;;;;;;;4.99;100.00;102565.31;5011379;28;20472;-45
2023/01/03 10:16:46;;;;;;;29.50;27.70;;;;;;;5.09;100.00;102559.34;5011988;28;20429;-49
2023/01/03 10:19:37;;;;;;;29.57;27.83;;;;;;;5.21;100.00;102553.97;5011431;28;20549;-44
2023/01/03 10:22:10;;;;;;;29.67;27.77;;;;;;;5.30;100.00;102563.00;5012086;28;20480;-44
2023/01/03 10:24:44;;;;;;;30.40;28.60;;;;;;;5.42;100.00;102565.53;5011504;28;20989;-48
2023/01/03 10:27:15;;;;;;;30.97;29.07;;;;;;;5.51;100.00;102561.31;5012024;28;20475;-46
2023/01/03 10:29:44;;;;;;;31.53;28.90;;;;;;;5.64;100.00;102561.22;5010784;28;21061;-44
2023/01/03 10:32:26;;;;;;;30.13;28.27;;;;;;;5.79;100.00;102558.22;5012126;28;20425;-45
2023/01/03 10:35:17;;;;;;;30.27;28.17;;;;;;;5.92;100.00;102558.09;5011570;28;20483;-46
2023/01/03 10:37:46;;;;;;;30.57;28.77;;;;;;;6.11;100.00;102553.88;5011631;28;20433;-44
2023/01/03 10:40:15;;;;;;;31.90;29.63;;;;;;;6.21;100.00;102550.47;4995559;28;20500;-45
2023/01/03 10:42:44;;;;;;;30.47;28.20;;;;;;;6.39;100.00;102551.63;5011399;28;20484;-44
2023/01/03 10:45:14;;;;;;;31.00;29.20;;;;;;;6.50;100.00;102552.44;5011417;28;20441;-44
2023/01/03 10:47:42;;;;;;;30.30;28.60;;;;;;;6.47;100.00;102550.03;5011550;28;20998;-44
2023/01/03 10:50:21;;;;;;;31.43;29.33;;;;;;;6.42;100.00;102544.25;5011437;28;20488;-47
2023/01/03 10:52:56;;;;;;;31.60;29.33;;;;;;;6.45;100.00;102549.28;5011606;28;21190;-48
2023/01/03 10:55:26;;;;;;;30.47;28.60;;;;;;;6.48;100.00;102550.88;5011400;28;20989;-44
2023/01/03 10:58:00;;;;;;;31.07;29.17;;;;;;;6.58;100.00;102546.47;5011027;28;20435;-46
2023/01/03 11:00:33;;;;;;;31.03;29.33;;;;;;;6.62;100.00;102550.56;5011171;28;20461;-45
2023/01/03 11:03:13;;;;;;;29.70;28.10;;;;;;;6.67;100.00;102548.38;5011328;28;20464;-47
2023/01/03 11:05:42;;;;;;;29.70;28.20;;;;;;;6.71;100.00;102546.31;5011457;28;20432;-47
2023/01/03 11:08:21;;;;;;;30.27;28.30;;;;;;;6.73;100.00;102544.34;5011470;28;20859;-48
2023/01/03 11:10:53;;;;;;;32.43;30.73;;;;;;;6.74;100.00;102543.41;5010955;28;20993;-45
2023/01/03 11:13:34;;;;;;;31.10;29.30;;;;;;;6.73;100.00;102537.25;5011274;28;20540;-45
2023/01/03 11:16:04;;;;;;;32.00;29.87;;;;;;;6.75;100.00;102540.59;5011389;28;20525;-45
2023/01/03 11:18:32;;;;;;;33.07;31.30;;;;;;;6.82;100.00;102533.00;5011115;28;20449;-44
2023/01/03 11:21:12;;;;;;;34.70;32.50;;;;;;;6.78;100.00;102535.03;5014737;28;20429;-48
2023/01/03 11:23:57;;;;;;;33.23;30.80;;;;;;;6.75;100.00;102537.94;5014945;28;20429;-44
2023/01/03 11:26:41;;;;;;;31.43;29.83;;;;;;;6.79;100.00;102523.47;5014669;28;20829;-45
2023/01/03 11:29:38;;;;;;;32.03;30.20;;;;;;;6.74;100.00;102528.34;5014468;28;20483;-45
2023/01/03 11:32:28;;;;;;;32.67;30.37;;;;;;;6.74;100.00;102530.16;5014511;28;20455;-45
2023/01/03 11:35:14;;;;;;;35.17;31.10;;;;;;;6.76;100.00;102528.19;5007151;28;20468;-45
2023/01/03 11:38:00;;;;;;;30.80;29.20;;;;;;;6.80;100.00;102530.47;5008287;28;20433;-45
2023/01/03 11:40:33;;;;;;;30.67;29.17;;;;;;;6.81;100.00;102531.31;5007376;28;21021;-46
2023/01/03 11:43:30;;;;;;;31.03;28.53;;;;;;;6.83;100.00;102524.91;5014402;28;20472;-46
2023/01/03 11:46:15;;;;;;;32.50;30.70;;;;;;;6.95;100.00;102523.88;5014155;28;20468;-46
2023/01/03 11:49:02;;;;;;;31.47;29.70;;;;;;;6.84;100.00;102520.47;5013618;28;20500;-47
2023/01/03 11:51:39;;;;;;;30.90;28.50;;;;;;;6.75;100.00;102527.34;5014462;28;20437;-46
2023/01/03 11:54:21;;;;;;;30.27;28.43;;;;;;;6.66;100.00;102520.16;5013539;28;20994;-46
2023/01/03 11:56:50;;;;;;;29.27;27.53;;;;;;;6.56;100.00;102519.28;5014434;28;20437;-47
2023/01/03 11:59:45;;;;;;;30.63;28.83;;;;;;;6.54;100.00;102510.63;5013553;28;20465;-44
2023/01/03 12:02:54;;;;;;;29.77;28.20;;;;;;;6.45;100.00;102520.13;5014275;28;20433;-48
2023/01/03 12:05:37;;;;;;;30.03;28.50;;;;;;;6.47;100.00;102512.91;5008693;28;20524;-49
2023/01/03 12:08:32;;;;;;;31.30;29.50;;;;;;;6.56;100.00;102517.47;5009430;28;20958;-45
2023/01/03 12:11:05;;;;;;;31.23;29.63;;;;;;;6.70;100.00;102518.94;5004887;28;20438;-45
2023/01/03 12:13:42;;;;;;;30.60;29.10;;;;;;;6.85;100.00;102522.13;5007955;28;20951;-46
2023/01/03 12:16:22;;;;;;;30.83;29.20;;;;;;;6.82;100.00;102522.38;4988191;28;20835;-47
2023/01/03 12:18:56;;;;;;;30.70;28.83;;;;;;;6.89;100.00;102520.91;5005015;28;20469;-49
2023/01/03 12:21:34;;;;;;;29.30;27.90;;;;;;;6.93;100.00;102517.03;5006452;28;20433;-47
2023/01/03 12:24:11;;;;;;;27.90;26.70;;;;;;;7.00;100.00;102518.19;4999384;28;20437;-46
2023/01/03 12:26:42;;;;;;;29.87;28.20;;;;;;;7.04;100.00;102520.47;4983903;28;20441;-48
2023/01/03 12:29:16;;;;;;;28.23;26.83;;;;;;;7.08;100.00;102507.75;4979428;28;20531;-44
2023/01/03 12:31:49;;;;;;;28.40;27.20;;;;;;;7.10;100.00;102513.78;4982090;28;20505;-44
2023/01/03 12:34:24;;;;;;;30.13;28.70;;;;;;;7.07;100.00;102506.94;4995949;28;20524;-45